This is the latest recevied weather packets stored in our database for station/object N5XJB. If no packets are shown the sender has not sent any weather packets the latest 10 day(s).
| Time | Temp. | Humidity | Pressure | Rain* | Wind** | Luminosity | Snow |
|---|---|---|---|---|---|---|---|
| 1777905452 | 25.56° C | 58% | 1017.1 hPa | 0 mm | - | 451 W/m² | - |
| 1777905150 | 25.56° C | 58% | 1016.8 hPa | 0 mm | - | 438 W/m² | - |
| 1777904846 | 25° C | 60% | 1016.8 hPa | 0 mm | - | 425 W/m² | - |
| 1777904544 | 24.44° C | 60% | 1017.1 hPa | 0 mm | - | 408 W/m² | - |
| 1777904240 | 23.89° C | 60% | 1017.1 hPa | 0 mm | - | 204 W/m² | - |
| 1777903937 | 23.89° C | 61% | 1016.8 hPa | 0 mm | - | 373 W/m² | - |
| 1777903634 | 24.44° C | 60% | 1017.1 hPa | 0 mm | - | 357 W/m² | - |
| 1777903329 | 23.89° C | 61% | 1016.8 hPa | 0 mm | - | 332 W/m² | - |
| 1777903027 | 23.89° C | 60% | 1016.8 hPa | 0 mm | - | 314 W/m² | - |
| 1777902723 | 23.33° C | 60% | 1016.8 hPa | 0 mm | - | 291 W/m² | - |
| 1777902421 | 23.33° C | 62% | 1016.8 hPa | 0 mm | - | 242 W/m² | - |
| 1777902117 | 22.78° C | 62% | 1017.1 hPa | 0 mm | - | 251 W/m² | - |
| 1777901816 | 22.78° C | 63% | 1017.1 hPa | 0 mm | - | 240 W/m² | - |
| 1777901513 | 22.22° C | 64% | 1017.1 hPa | 0 mm | - | 216 W/m² | - |
| 1777901210 | 21.67° C | 65% | 1017.1 hPa | 0 mm | - | 192 W/m² | - |
| 1777900907 | 21.67° C | 66% | 1016.8 hPa | 0 mm | - | 113 W/m² | - |
| 1777900605 | 21.67° C | 67% | 1016.8 hPa | 0 mm | - | 177 W/m² | - |
| 1777900301 | 21.11° C | 67% | 1016.8 hPa | 0 mm | - | 158 W/m² | - |
| 1777899998 | 20.56° C | 68% | 1016.8 hPa | 0 mm | - | 130 W/m² | - |
| 1777899694 | 19.44° C | 68% | 1016.8 hPa | 0 mm | - | 120 W/m² | - |
| 1777899392 | 18.33° C | 73% | 1016.8 hPa | 0 mm | - | 87 W/m² | - |
| 1777899090 | 17.22° C | 78% | 1016.8 hPa | 0 mm | - | 69 W/m² | - |
| 1777898787 | 16.67° C | 82% | 1016.8 hPa | 0 mm | - | 49 W/m² | - |
| 1777898484 | 16.11° C | 84% | 1016.8 hPa | 0 mm | - | 46 W/m² | - |
| 1777898182 | 15.56° C | 86% | 1016.8 hPa | 0 mm | - | 39 W/m² | - |
* Rain latest hour (hover to see other rain measurements)
** Current wind speed in m/s (hover to see current wind gust speed)